createdAt,value
2022-08-08T00:00:53.945Z,78306.75
2022-08-08T00:03:19.811Z,78302.56
2022-08-08T00:06:07.673Z,78304.66
2022-08-08T00:08:49.829Z,78304.66
2022-08-08T00:11:23.587Z,78310.94
2022-08-08T00:14:17.481Z,78304.66
2022-08-08T00:17:22.888Z,78313.03
2022-08-08T00:20:01.846Z,78317.22
2022-08-08T00:22:39.751Z,78317.22
2022-08-08T00:25:14.667Z,78319.28
2022-08-08T00:27:42.105Z,78342.28
2022-08-08T00:30:11.377Z,78359.03
2022-08-08T00:32:48.162Z,78382.00
2022-08-08T00:35:40.327Z,78398.75
2022-08-08T00:38:16.533Z,78392.47
2022-08-08T00:41:22.307Z,78388.28
2022-08-08T00:44:35.934Z,78384.09
2022-08-08T00:47:23.464Z,78379.94
2022-08-08T00:50:21.308Z,78379.94
2022-08-08T00:53:25.302Z,78384.09
2022-08-08T00:56:19.212Z,78388.28
2022-08-08T00:59:43.951Z,78398.75
2022-08-08T01:03:58.499Z,78407.09
2022-08-08T01:05:59.244Z,78440.56
2022-08-08T01:08:52.206Z,78438.47
2022-08-08T01:12:02.839Z,78430.09
2022-08-08T01:14:54.844Z,78434.28
2022-08-08T01:17:55.549Z,78436.38
2022-08-08T01:20:45.895Z,78430.09
2022-08-08T01:24:06.758Z,78428.00
2022-08-08T01:26:49.312Z,78436.38
2022-08-08T01:29:35.654Z,78444.72
2022-08-08T01:32:41.849Z,78440.56
2022-08-08T01:35:38.422Z,78438.47
2022-08-08T01:38:33.920Z,78440.56
2022-08-08T01:41:05.756Z,78440.56
2022-08-08T01:43:58.342Z,78444.72
2022-08-08T01:46:52.157Z,78455.19
2022-08-08T01:49:43.699Z,78457.28
2022-08-08T01:54:33.440Z,78461.47
2022-08-08T01:56:26.894Z,78453.09
2022-08-08T01:58:52.972Z,78444.72
2022-08-08T02:01:36.049Z,78440.56
2022-08-08T02:04:48.072Z,78455.19
2022-08-08T02:08:03.309Z,78471.91
2022-08-08T02:10:46.984Z,78494.91
2022-08-08T02:13:53.367Z,78507.47
2022-08-08T02:16:48.307Z,78517.91
2022-08-08T02:19:57.826Z,78513.72
2022-08-08T02:22:55.129Z,78515.81
2022-08-08T02:25:33.169Z,78515.81
2022-08-08T02:28:48.484Z,78517.91
2022-08-08T02:31:58.712Z,78511.63
2022-08-08T02:34:36.968Z,78511.63
2022-08-08T02:37:04.090Z,78513.72
2022-08-08T02:40:04.754Z,78515.81
2022-08-08T02:44:42.669Z,78534.63
2022-08-08T02:46:05.920Z,78534.63
2022-08-08T02:49:13.360Z,78530.44
2022-08-08T02:51:59.737Z,78520.00
2022-08-08T02:54:51.759Z,78513.72
2022-08-08T02:57:54.856Z,78515.81
2022-08-08T03:00:56.596Z,78524.19
2022-08-08T03:05:04.390Z,78536.72
2022-08-08T03:07:23.114Z,78536.72
2022-08-08T03:10:32.486Z,78538.81
2022-08-08T03:15:54.256Z,78540.91
2022-08-08T03:16:35.355Z,78568.09
2022-08-08T03:19:21.213Z,78551.34
2022-08-08T03:21:58.670Z,78568.09
2022-08-08T03:24:26.580Z,78595.25
2022-08-08T03:27:18.088Z,78624.53
2022-08-08T03:29:55.650Z,78607.81
2022-08-08T03:32:41.797Z,78601.53
2022-08-08T03:35:14.397Z,78601.53
2022-08-08T03:38:52.996Z,78616.19
2022-08-08T03:40:29.663Z,78624.53
2022-08-08T03:42:58.814Z,78614.09
2022-08-08T03:46:06.289Z,78607.81
2022-08-08T03:49:08.893Z,78624.53
2022-08-08T03:51:16.593Z,78641.25
2022-08-08T03:53:47.612Z,78655.91
2022-08-08T03:56:32.190Z,78658.00
2022-08-08T03:58:59.140Z,78651.72
2022-08-08T04:02:12.886Z,78653.81
2022-08-08T04:04:23.124Z,78651.72
2022-08-08T04:07:01.464Z,78658.00
2022-08-08T04:09:39.667Z,78666.34
2022-08-08T04:12:16.000Z,78672.63
2022-08-08T04:14:44.970Z,78664.25
2022-08-08T04:17:22.549Z,78662.16
2022-08-08T04:19:58.409Z,78668.44
2022-08-08T04:22:29.841Z,78689.34
2022-08-08T04:24:56.611Z,78683.06
2022-08-08T04:28:03.137Z,78668.44
2022-08-08T04:30:17.944Z,78674.72
2022-08-08T04:32:49.847Z,78689.34
2022-08-08T04:35:17.978Z,78691.44
2022-08-08T04:37:46.964Z,78685.16
2022-08-08T04:40:15.814Z,78681.00
2022-08-08T04:42:56.331Z,78676.81
2022-08-08T04:45:27.580Z,78672.63
2022-08-08T04:47:55.105Z,78683.06
2022-08-08T04:50:24.684Z,78681.00
2022-08-08T04:53:00.914Z,78687.25
2022-08-08T04:55:47.191Z,78678.91
2022-08-08T04:58:18.079Z,78672.63
2022-08-08T05:00:45.029Z,78670.53
2022-08-08T05:03:18.901Z,78691.44
2022-08-08T05:06:01.320Z,78687.25
2022-08-08T05:08:40.526Z,78681.00
2022-08-08T05:11:07.928Z,78678.91
2022-08-08T05:13:34.520Z,78676.81
2022-08-08T05:16:48.263Z,78674.72
2022-08-08T05:18:48.177Z,78672.63
2022-08-08T05:21:16.127Z,78676.81
2022-08-08T05:23:46.237Z,78672.63
2022-08-08T05:26:16.112Z,78668.44
2022-08-08T05:28:55.963Z,78668.44
2022-08-08T05:32:03.895Z,78670.53
2022-08-08T05:34:34.960Z,78678.91
2022-08-08T05:37:07.578Z,78678.91
2022-08-08T05:39:51.149Z,78666.34
2022-08-08T05:42:25.830Z,78676.81
2022-08-08T05:44:53.289Z,78676.81
2022-08-08T05:47:22.099Z,78670.53
2022-08-08T05:49:55.949Z,78670.53
2022-08-08T05:52:32.038Z,78664.25
2022-08-08T05:55:09.646Z,78664.25
2022-08-08T05:58:03.988Z,78655.91
2022-08-08T06:00:30.090Z,78655.91
2022-08-08T06:03:10.646Z,78655.91
2022-08-08T06:06:06.538Z,78637.09
2022-08-08T06:08:54.640Z,78632.91
2022-08-08T06:11:22.388Z,78641.25
2022-08-08T06:13:54.879Z,78643.34
2022-08-08T06:16:25.017Z,78637.09
2022-08-08T06:18:56.946Z,78632.91
2022-08-08T06:21:32.658Z,78630.81
2022-08-08T06:24:13.770Z,78628.72
2022-08-08T06:27:10.555Z,78622.44
2022-08-08T06:29:59.862Z,78620.34
2022-08-08T06:32:32.735Z,78607.81
2022-08-08T06:36:04.844Z,78597.34
2022-08-08T06:37:59.180Z,78591.09
2022-08-08T06:40:29.806Z,78582.72
2022-08-08T06:43:09.774Z,78576.44
2022-08-08T06:45:39.069Z,78574.34
2022-08-08T06:48:06.100Z,78566.00
2022-08-08T06:50:33.311Z,78553.44
2022-08-08T06:53:14.521Z,78532.53
2022-08-08T06:56:01.885Z,78520.00
2022-08-08T06:58:30.899Z,78522.09
2022-08-08T07:01:02.180Z,78511.63
2022-08-08T07:04:35.866Z,78503.28
2022-08-08T07:06:38.659Z,78497.00
2022-08-08T07:09:15.230Z,78486.56
2022-08-08T07:11:51.347Z,78490.72
2022-08-08T07:14:22.380Z,78488.63
2022-08-08T07:17:09.218Z,78478.19
2022-08-08T07:19:44.609Z,78465.63
2022-08-08T07:22:18.685Z,78461.47
2022-08-08T07:24:54.669Z,78448.91
2022-08-08T07:27:35.196Z,78438.47
2022-08-08T07:30:14.868Z,78428.00
2022-08-08T07:32:44.703Z,78405.00
2022-08-08T07:35:15.232Z,78390.38
2022-08-08T07:38:05.053Z,78384.09
2022-08-08T07:40:33.965Z,78379.94
2022-08-08T07:43:03.991Z,78373.66
2022-08-08T07:45:51.505Z,78329.75
2022-08-08T07:48:21.706Z,78323.47
2022-08-08T07:50:50.041Z,78317.22
2022-08-08T07:53:23.934Z,78306.75
2022-08-08T07:56:11.348Z,78300.47
2022-08-08T07:58:42.659Z,78275.41
2022-08-08T08:01:12.297Z,78267.03
2022-08-08T08:03:43.966Z,78256.56
2022-08-08T08:06:12.383Z,78248.22
2022-08-08T08:08:51.989Z,78252.41
2022-08-08T08:11:21.414Z,78248.22
2022-08-08T08:14:09.723Z,78246.13
2022-08-08T08:16:41.003Z,78235.69
2022-08-08T08:19:12.846Z,78229.41
2022-08-08T08:21:57.886Z,78212.69
2022-08-08T08:24:32.297Z,78200.13
2022-08-08T08:26:59.895Z,78179.22
2022-08-08T08:29:30.052Z,78172.97
2022-08-08T08:31:58.113Z,78156.22
2022-08-08T08:34:31.909Z,78141.59
2022-08-08T08:36:59.664Z,78147.88
2022-08-08T08:40:00.096Z,78133.25
2022-08-08T08:42:14.901Z,78116.50
2022-08-08T08:44:56.393Z,78101.88
2022-08-08T08:47:23.441Z,78089.34
2022-08-08T08:49:51.723Z,78078.88
2022-08-08T08:52:20.568Z,78068.44
2022-08-08T08:54:47.910Z,78064.25
2022-08-08T08:57:25.065Z,78057.97
2022-08-08T09:00:01.665Z,78057.97
2022-08-08T09:02:34.598Z,78032.91
2022-08-08T09:05:05.751Z,78032.91
2022-08-08T09:07:38.859Z,78022.44
2022-08-08T09:10:18.757Z,77978.53
2022-08-08T09:12:49.158Z,77984.81
2022-08-08T09:15:18.667Z,77982.72
2022-08-08T09:18:04.196Z,77974.38
2022-08-08T09:22:01.960Z,77920.00
2022-08-08T09:23:25.541Z,77876.13
2022-08-08T09:26:21.430Z,77869.84
2022-08-08T09:28:49.949Z,77871.94
2022-08-08T09:31:24.011Z,77865.66
2022-08-08T09:34:15.989Z,77859.38
2022-08-08T09:36:40.126Z,77853.13
2022-08-08T09:39:21.835Z,77846.84
2022-08-08T09:42:20.467Z,77842.66
2022-08-08T09:44:57.847Z,77840.56
2022-08-08T09:48:04.143Z,77848.94
2022-08-08T09:50:34.473Z,77828.03
2022-08-08T09:53:23.780Z,77798.78
2022-08-08T09:56:04.492Z,77782.06
2022-08-08T09:58:44.507Z,77777.88
2022-08-08T10:01:15.340Z,77773.69
2022-08-08T10:04:02.414Z,77771.59
2022-08-08T10:06:32.453Z,77761.16
2022-08-08T10:08:59.939Z,77756.97
2022-08-08T10:12:26.351Z,77756.97
2022-08-08T10:14:28.031Z,77736.06
2022-08-08T10:17:00.418Z,77710.97
2022-08-08T10:19:57.171Z,77719.34
2022-08-08T10:22:26.460Z,77710.97
2022-08-08T10:25:05.902Z,77698.44
2022-08-08T10:27:41.479Z,77665.00
2022-08-08T10:30:16.651Z,77671.25
2022-08-08T10:32:57.729Z,77656.63
2022-08-08T10:36:19.807Z,77639.91
2022-08-08T10:38:17.754Z,77642.00
2022-08-08T10:40:51.040Z,77631.56
2022-08-08T10:43:18.520Z,77631.56
2022-08-08T10:45:56.386Z,77614.81
2022-08-08T10:48:32.472Z,77616.91
2022-08-08T10:51:11.620Z,77621.09
2022-08-08T10:53:57.704Z,77614.81
2022-08-08T10:56:32.184Z,77575.13
2022-08-08T10:59:01.718Z,77552.13
2022-08-08T11:01:33.588Z,77547.94
2022-08-08T11:04:04.710Z,77550.03
2022-08-08T11:06:35.460Z,77552.13
2022-08-08T11:09:15.243Z,77541.66
2022-08-08T11:12:05.099Z,77541.66
2022-08-08T11:14:33.740Z,77524.94
2022-08-08T11:17:01.403Z,77518.69
2022-08-08T11:19:28.511Z,77520.75
2022-08-08T11:21:58.497Z,77516.59
2022-08-08T11:24:27.482Z,77508.22
2022-08-08T11:26:57.979Z,77497.78
2022-08-08T11:29:41.605Z,77493.59
2022-08-08T11:32:14.525Z,77476.88
2022-08-08T11:35:09.652Z,77464.34
2022-08-08T11:38:36.799Z,77468.50
2022-08-08T11:40:25.778Z,77453.88
2022-08-08T11:42:54.795Z,77437.16
2022-08-08T11:45:22.986Z,77449.69
2022-08-08T11:48:02.630Z,77445.53
2022-08-08T11:50:32.333Z,77428.78
2022-08-08T11:53:00.870Z,77432.97
2022-08-08T11:55:35.461Z,77428.78
2022-08-08T11:58:14.586Z,77441.34
2022-08-08T12:00:52.290Z,77439.25
2022-08-08T12:03:20.857Z,77424.63
2022-08-08T12:05:48.668Z,77420.44
2022-08-08T12:08:16.502Z,77426.72
2022-08-08T12:10:50.507Z,77426.72
2022-08-08T12:13:37.622Z,77416.25
2022-08-08T12:16:16.961Z,77412.06
2022-08-08T12:18:54.245Z,77439.25
2022-08-08T12:21:25.841Z,77470.59
2022-08-08T12:24:10.424Z,77458.06
2022-08-08T12:26:49.930Z,77424.63
2022-08-08T12:29:54.465Z,77397.44
2022-08-08T12:32:22.505Z,77374.47
2022-08-08T12:34:53.717Z,77389.09
2022-08-08T12:37:40.653Z,77374.47
2022-08-08T12:40:22.471Z,77368.19
2022-08-08T12:42:49.998Z,77368.19
2022-08-08T12:45:54.973Z,77391.19
2022-08-08T12:48:18.028Z,77376.53
2022-08-08T12:50:54.773Z,77366.09
2022-08-08T12:53:36.550Z,77374.47
2022-08-08T12:56:18.392Z,77343.09
2022-08-08T12:58:54.379Z,77330.56
2022-08-08T13:01:34.800Z,77326.38
2022-08-08T13:04:18.388Z,77299.22
2022-08-08T13:07:06.804Z,77290.84
2022-08-08T13:10:00.587Z,77320.13
2022-08-08T13:12:30.309Z,77303.41
2022-08-08T13:14:57.708Z,77313.84
2022-08-08T13:18:08.298Z,77307.56
2022-08-08T13:20:18.342Z,77301.31
2022-08-08T13:22:45.524Z,77288.75
2022-08-08T13:25:17.437Z,77276.22
2022-08-08T13:27:44.552Z,77253.22
2022-08-08T13:30:20.855Z,77253.22
2022-08-08T13:32:47.806Z,77278.31
2022-08-08T13:35:25.090Z,77261.59
2022-08-08T13:38:06.055Z,77255.31
2022-08-08T13:40:35.193Z,77261.59
2022-08-08T13:43:02.381Z,77244.88
2022-08-08T13:45:31.011Z,77244.88
2022-08-08T13:48:01.895Z,77255.31
2022-08-08T13:50:43.933Z,77255.31
2022-08-08T13:53:36.218Z,77246.97
2022-08-08T13:56:11.467Z,77251.13
2022-08-08T13:58:49.136Z,77253.22
2022-08-08T14:01:41.583Z,77267.88
2022-08-08T14:04:21.354Z,77238.59
2022-08-08T14:06:48.388Z,77269.94
2022-08-08T14:09:25.134Z,77282.50
2022-08-08T14:12:00.208Z,77305.47
2022-08-08T14:14:37.696Z,77311.75
2022-08-08T14:17:06.946Z,77307.56
2022-08-08T14:19:57.816Z,77309.66
2022-08-08T14:22:38.007Z,77336.84
2022-08-08T14:25:15.482Z,77353.56
2022-08-08T14:27:59.687Z,77370.28
2022-08-08T14:30:33.443Z,77368.19
2022-08-08T14:33:00.386Z,77372.38
2022-08-08T14:35:35.012Z,77382.81
2022-08-08T14:38:09.442Z,77395.34
2022-08-08T14:40:53.396Z,77405.81
2022-08-08T14:44:02.533Z,77401.63
2022-08-08T14:46:16.006Z,77420.44
2022-08-08T14:48:52.489Z,77414.16
2022-08-08T14:51:47.279Z,77393.25
2022-08-08T14:54:13.661Z,77357.72
2022-08-08T14:56:42.825Z,77332.66
2022-08-08T14:59:31.361Z,77313.84
2022-08-08T15:02:00.258Z,77295.03
2022-08-08T15:04:26.806Z,77284.59
2022-08-08T15:06:55.492Z,77290.84
2022-08-08T15:09:23.195Z,77278.31
2022-08-08T15:11:53.206Z,77263.69
2022-08-08T15:14:26.525Z,77263.69
2022-08-08T15:16:53.763Z,77255.31
2022-08-08T15:19:21.284Z,77251.13
2022-08-08T15:21:50.307Z,77259.50
2022-08-08T15:24:17.057Z,77272.03
2022-08-08T15:26:52.488Z,77307.56
2022-08-08T15:29:22.491Z,77334.75
2022-08-08T15:32:03.599Z,77324.28
2022-08-08T15:34:37.482Z,77295.03
2022-08-08T15:37:06.146Z,77269.94
2022-08-08T15:39:39.092Z,77280.41
2022-08-08T15:42:13.106Z,77267.88
2022-08-08T15:44:40.599Z,77265.78
2022-08-08T15:47:15.339Z,77263.69
2022-08-08T15:49:43.832Z,77251.13
2022-08-08T15:52:12.985Z,77230.25
2022-08-08T15:54:40.636Z,77244.88
2022-08-08T15:57:09.040Z,77232.34
2022-08-08T16:00:14.095Z,77255.31
2022-08-08T16:02:30.443Z,77265.78
2022-08-08T16:04:58.881Z,77272.03
2022-08-08T16:07:52.078Z,77280.41
2022-08-08T16:13:05.742Z,77290.84
2022-08-08T16:13:14.551Z,77303.41
2022-08-08T16:15:59.036Z,77297.13
2022-08-08T16:18:29.367Z,77299.22
2022-08-08T16:20:59.909Z,77301.31
2022-08-08T16:23:28.526Z,77295.03
2022-08-08T16:26:03.508Z,77301.31
2022-08-08T16:28:34.854Z,77307.56
2022-08-08T16:31:06.275Z,77292.94
2022-08-08T16:33:39.284Z,77257.41
2022-08-08T16:36:09.774Z,77244.88
2022-08-08T16:38:44.636Z,77278.31
2022-08-08T16:41:20.679Z,77276.22
2022-08-08T16:43:51.606Z,77257.41
2022-08-08T16:46:42.820Z,77276.22
2022-08-08T16:49:09.137Z,77284.59
2022-08-08T16:55:00.523Z,77295.03
2022-08-08T16:55:05.577Z,77311.75
2022-08-08T16:57:22.813Z,77320.13
2022-08-08T16:59:51.932Z,77328.47
2022-08-08T17:02:44.298Z,77332.66
2022-08-08T17:05:10.006Z,77347.28
2022-08-08T17:07:37.911Z,77355.66
2022-08-08T17:10:08.667Z,77355.66
2022-08-08T17:12:36.843Z,77368.19
2022-08-08T17:15:17.599Z,77368.19
2022-08-08T17:18:03.295Z,77393.25
2022-08-08T17:20:38.167Z,77403.72
2022-08-08T17:23:18.008Z,77401.63
2022-08-08T17:25:54.234Z,77412.06
2022-08-08T17:28:33.982Z,77430.88
2022-08-08T17:31:44.829Z,77432.97
2022-08-08T17:34:49.366Z,77432.97
2022-08-08T17:37:02.842Z,77455.97
2022-08-08T17:40:02.948Z,77455.97
2022-08-08T17:42:12.728Z,77470.59
2022-08-08T17:44:44.014Z,77487.31
2022-08-08T17:47:11.309Z,77491.50
2022-08-08T17:49:51.616Z,77501.97
2022-08-08T17:52:19.069Z,77506.13
2022-08-08T17:54:46.152Z,77508.22
2022-08-08T17:57:14.254Z,77514.50
2022-08-08T17:59:45.684Z,77520.75
2022-08-08T18:02:18.933Z,77527.03
2022-08-08T18:04:50.578Z,77543.75
2022-08-08T18:08:03.017Z,77550.03
2022-08-08T18:10:05.184Z,77564.66
2022-08-08T18:12:31.770Z,77568.84
2022-08-08T18:14:58.679Z,77596.00
2022-08-08T18:18:05.312Z,77589.75
2022-08-08T18:20:43.274Z,77610.66
2022-08-08T18:23:00.645Z,77612.72
2022-08-08T18:25:28.557Z,77612.72
2022-08-08T18:28:03.990Z,77619.00
2022-08-08T18:30:30.514Z,77625.28
2022-08-08T18:32:58.789Z,77642.00
2022-08-08T18:35:25.359Z,77644.09
2022-08-08T18:38:03.725Z,77652.44
2022-08-08T18:40:45.592Z,77671.25
2022-08-08T18:43:16.272Z,77671.25
2022-08-08T18:46:06.262Z,77683.81
2022-08-08T18:48:30.210Z,77696.34
2022-08-08T18:50:58.161Z,77708.88
2022-08-08T18:53:25.352Z,77721.44
2022-08-08T18:56:23.198Z,77736.06
2022-08-08T18:58:49.916Z,77756.97
2022-08-08T19:02:25.425Z,77769.50
2022-08-08T19:04:10.987Z,77779.97
2022-08-08T19:06:39.553Z,77798.78
2022-08-08T19:09:13.375Z,77811.31
2022-08-08T19:11:46.841Z,77830.13
2022-08-08T19:14:20.391Z,77830.13
2022-08-08T19:16:47.621Z,77846.84
2022-08-08T19:19:14.814Z,77853.13
2022-08-08T19:21:48.436Z,77861.47
2022-08-08T19:24:34.181Z,77863.56
2022-08-08T19:27:03.314Z,77878.19
2022-08-08T19:29:30.554Z,77888.66
2022-08-08T19:31:57.442Z,77907.47
2022-08-08T19:34:36.289Z,77901.19
2022-08-08T19:37:05.561Z,77911.66
2022-08-08T19:39:35.783Z,77920.00
2022-08-08T19:42:06.614Z,77911.66
2022-08-08T19:44:42.914Z,77928.38
2022-08-08T19:47:10.016Z,77926.28
2022-08-08T19:49:38.976Z,77930.47
2022-08-08T19:52:07.124Z,77943.00
2022-08-08T19:54:33.779Z,77953.47
2022-08-08T19:57:04.331Z,77947.19
2022-08-08T19:59:34.972Z,77959.72
2022-08-08T20:02:04.507Z,77961.81
2022-08-08T20:04:32.145Z,77974.38
2022-08-08T20:07:05.329Z,77978.53
2022-08-08T20:09:56.278Z,77986.91
2022-08-08T20:12:32.321Z,77991.09
2022-08-08T20:15:01.661Z,78001.53
2022-08-08T20:17:40.985Z,78003.63
2022-08-08T20:20:10.526Z,78007.81
2022-08-08T20:22:42.604Z,78014.09
2022-08-08T20:25:14.317Z,78022.44
2022-08-08T20:27:50.394Z,78026.63
2022-08-08T20:30:35.546Z,78039.16
2022-08-08T20:33:18.464Z,78047.53
2022-08-08T20:35:58.345Z,78049.63
2022-08-08T20:38:32.566Z,78047.53
2022-08-08T20:40:59.908Z,78062.16
2022-08-08T20:43:42.974Z,78078.88
2022-08-08T20:46:10.818Z,78089.34
2022-08-08T20:48:37.324Z,78085.16
2022-08-08T20:51:05.438Z,78087.25
2022-08-08T20:53:58.342Z,78087.25
2022-08-08T20:56:20.196Z,78093.53
2022-08-08T20:59:03.325Z,78095.59
2022-08-08T21:01:33.469Z,78099.78
2022-08-08T21:04:19.928Z,78110.25
2022-08-08T21:06:53.009Z,78110.25
2022-08-08T21:09:21.529Z,78116.50
2022-08-08T21:11:50.471Z,78122.78
2022-08-08T21:14:17.859Z,78124.88
2022-08-08T21:16:57.025Z,78131.16
2022-08-08T21:19:25.700Z,78129.06
2022-08-08T21:22:00.846Z,78137.41
2022-08-08T21:24:30.234Z,78139.50
2022-08-08T21:26:58.150Z,78141.59
2022-08-08T21:30:02.971Z,78147.88
2022-08-08T21:32:14.222Z,78149.97
2022-08-08T21:34:51.578Z,78143.69
2022-08-08T21:37:23.535Z,78152.06
2022-08-08T21:40:11.295Z,78164.59
2022-08-08T21:42:39.195Z,78160.41
2022-08-08T21:45:44.721Z,78172.97
2022-08-08T21:48:07.001Z,78172.97
2022-08-08T21:50:37.715Z,78172.97
2022-08-08T21:54:31.636Z,78187.59
2022-08-08T21:56:19.065Z,78181.31
2022-08-08T21:58:38.011Z,78198.03
2022-08-08T22:01:05.052Z,78200.13
2022-08-08T22:03:43.743Z,78204.31
2022-08-08T22:06:28.743Z,78210.59
2022-08-08T22:08:59.443Z,78212.69
2022-08-08T22:11:59.385Z,78221.03
2022-08-08T22:14:16.514Z,78225.22
2022-08-08T22:16:44.159Z,78233.59
2022-08-08T22:19:15.401Z,78241.94
2022-08-08T22:21:42.842Z,78241.94
2022-08-08T22:24:12.016Z,78241.94
2022-08-08T22:27:01.710Z,78252.41
2022-08-08T22:29:58.839Z,78258.66
2022-08-08T22:32:11.498Z,78260.75
2022-08-08T22:34:39.226Z,78262.84
2022-08-08T22:37:06.792Z,78264.94
2022-08-08T22:39:51.257Z,78275.41
2022-08-08T22:42:31.429Z,78279.56
2022-08-08T22:44:58.840Z,78273.31
2022-08-08T22:47:37.895Z,78279.56
2022-08-08T22:50:09.929Z,78281.66
2022-08-08T22:52:58.825Z,78300.47
2022-08-08T22:55:58.291Z,78298.38
2022-08-08T22:58:27.223Z,78296.31
2022-08-08T23:00:58.032Z,78296.31
2022-08-08T23:03:33.999Z,78300.47
2022-08-08T23:06:13.809Z,78308.84
2022-08-08T23:08:54.513Z,78313.03
2022-08-08T23:11:22.989Z,78321.38
2022-08-08T23:14:01.147Z,78325.56
2022-08-08T23:16:37.965Z,78325.56
2022-08-08T23:19:09.186Z,78323.47
2022-08-08T23:21:35.699Z,78329.75
2022-08-08T23:24:04.936Z,78336.03
2022-08-08T23:26:31.488Z,78333.94
2022-08-08T23:28:57.978Z,78340.19
2022-08-08T23:31:24.458Z,78336.03
2022-08-08T23:34:16.963Z,78340.19
2022-08-08T23:36:39.224Z,78336.03
2022-08-08T23:39:07.486Z,78344.38
2022-08-08T23:41:45.518Z,78342.28
2022-08-08T23:44:14.263Z,78348.56
2022-08-08T23:49:00.413Z,78346.47
2022-08-08T23:49:27.239Z,78350.66
2022-08-08T23:52:04.501Z,78352.75
2022-08-08T23:54:42.158Z,78350.66
2022-08-08T23:57:26.718Z,78359.03
